sensor_id;sensor_type;location;lat;lon;timestamp;pressure;altitude;pressure_sealevel;temperature;humidity
72124;BME280;63818;37.134;-8.548;2023-07-31T00:01:16;101517.2;;;27.8;35.3
72124;BME280;63818;37.134;-8.548;2023-07-31T00:06:02;101524.8;;;27.7;35.2
72124;BME280;63818;37.134;-8.548;2023-07-31T00:10:50;101523.6;;;27.7;35.3
72124;BME280;63818;37.134;-8.548;2023-07-31T00:15:36;101517.4;;;27.6;35.8
72124;BME280;63818;37.134;-8.548;2023-07-31T00:20:23;101522.8;;;27.7;36.3
72124;BME280;63818;37.134;-8.548;2023-07-31T00:25:09;101528.8;;;27.7;37.5
72124;BME280;63818;37.134;-8.548;2023-07-31T00:29:55;101524.5;;;27.5;37.4
72124;BME280;63818;37.134;-8.548;2023-07-31T00:34:41;101523.0;;;27.4;37.5
72124;BME280;63818;37.134;-8.548;2023-07-31T00:39:26;101513.9;;;27.4;37.5
72124;BME280;63818;37.134;-8.548;2023-07-31T00:44:15;101508.4;;;27.3;37.9
72124;BME280;63818;37.134;-8.548;2023-07-31T00:49:03;101513.6;;;27.1;37.4
72124;BME280;63818;37.134;-8.548;2023-07-31T00:53:49;101517.2;;;27.0;37.3
72124;BME280;63818;37.134;-8.548;2023-07-31T00:58:35;101510.5;;;27.0;37.2
72124;BME280;63818;37.134;-8.548;2023-07-31T01:03:21;101505.0;;;26.9;37.2
72124;BME280;63818;37.134;-8.548;2023-07-31T01:08:14;101507.0;;;26.9;35.6
72124;BME280;63818;37.134;-8.548;2023-07-31T01:13:03;101496.4;;;27.0;35.3
72124;BME280;63818;37.134;-8.548;2023-07-31T01:17:49;101504.3;;;26.8;35.7
72124;BME280;63818;37.134;-8.548;2023-07-31T01:22:47;101498.4;;;26.9;35.1
72124;BME280;63818;37.134;-8.548;2023-07-31T01:27:39;101502.7;;;26.7;36.0
72124;BME280;63818;37.134;-8.548;2023-07-31T01:32:28;101494.5;;;26.4;35.9
72124;BME280;63818;37.134;-8.548;2023-07-31T01:37:15;101492.9;;;26.5;35.8
72124;BME280;63818;37.134;-8.548;2023-07-31T01:42:01;101496.1;;;26.6;35.3
72124;BME280;63818;37.134;-8.548;2023-07-31T01:46:48;101483.9;;;26.4;35.6
72124;BME280;63818;37.134;-8.548;2023-07-31T01:51:34;101489.0;;;26.5;35.6
72124;BME280;63818;37.134;-8.548;2023-07-31T01:56:20;101479.5;;;26.6;35.6
72124;BME280;63818;37.134;-8.548;2023-07-31T02:01:06;101475.2;;;26.4;36.0
72124;BME280;63818;37.134;-8.548;2023-07-31T02:05:54;101469.3;;;26.3;35.5
72124;BME280;63818;37.134;-8.548;2023-07-31T02:10:40;101465.4;;;26.3;35.5
72124;BME280;63818;37.134;-8.548;2023-07-31T02:15:26;101464.2;;;26.3;32.8
72124;BME280;63818;37.134;-8.548;2023-07-31T02:20:12;101456.7;;;26.4;31.6
72124;BME280;63818;37.134;-8.548;2023-07-31T02:24:58;101456.8;;;26.3;32.2
72124;BME280;63818;37.134;-8.548;2023-07-31T02:29:44;101452.8;;;26.3;32.0
72124;BME280;63818;37.134;-8.548;2023-07-31T02:34:30;101448.9;;;26.3;32.3
72124;BME280;63818;37.134;-8.548;2023-07-31T02:39:16;101444.2;;;26.2;32.0
72124;BME280;63818;37.134;-8.548;2023-07-31T02:44:01;101446.1;;;26.2;32.0
72124;BME280;63818;37.134;-8.548;2023-07-31T02:48:47;101437.8;;;26.2;31.8
72124;BME280;63818;37.134;-8.548;2023-07-31T02:53:33;101444.9;;;26.1;32.1
72124;BME280;63818;37.134;-8.548;2023-07-31T02:58:20;101441.4;;;26.2;30.9
72124;BME280;63818;37.134;-8.548;2023-07-31T03:03:06;101437.1;;;26.1;31.5
72124;BME280;63818;37.134;-8.548;2023-07-31T03:07:52;101439.8;;;25.9;31.8
72124;BME280;63818;37.134;-8.548;2023-07-31T03:12:37;101433.5;;;25.9;31.7
72124;BME280;63818;37.134;-8.548;2023-07-31T03:17:24;101439.5;;;25.9;31.8
72124;BME280;63818;37.134;-8.548;2023-07-31T03:22:10;101441.4;;;25.9;32.5
72124;BME280;63818;37.134;-8.548;2023-07-31T03:26:55;101430.8;;;25.8;32.9
72124;BME280;63818;37.134;-8.548;2023-07-31T03:31:41;101445.3;;;25.7;33.0
72124;BME280;63818;37.134;-8.548;2023-07-31T03:36:28;101440.2;;;25.5;32.8
72124;BME280;63818;37.134;-8.548;2023-07-31T03:41:13;101444.1;;;25.5;33.4
72124;BME280;63818;37.134;-8.548;2023-07-31T03:46:00;101439.0;;;25.5;33.9
72124;BME280;63818;37.134;-8.548;2023-07-31T03:50:46;101447.2;;;25.5;34.1
72124;BME280;63818;37.134;-8.548;2023-07-31T03:55:31;101441.0;;;25.6;33.9
72124;BME280;63818;37.134;-8.548;2023-07-31T04:00:17;101442.5;;;25.5;34.2
72124;BME280;63818;37.134;-8.548;2023-07-31T04:05:04;101444.1;;;25.3;34.2
72124;BME280;63818;37.134;-8.548;2023-07-31T04:09:50;101444.1;;;25.3;33.1
72124;BME280;63818;37.134;-8.548;2023-07-31T04:14:36;101442.1;;;25.4;32.5
72124;BME280;63818;37.134;-8.548;2023-07-31T04:19:22;101441.0;;;25.3;32.6
72124;BME280;63818;37.134;-8.548;2023-07-31T04:24:08;101453.9;;;25.2;34.0
72124;BME280;63818;37.134;-8.548;2023-07-31T04:28:54;101453.5;;;25.4;33.3
72124;BME280;63818;37.134;-8.548;2023-07-31T04:33:40;101449.1;;;25.1;34.0
72124;BME280;63818;37.134;-8.548;2023-07-31T04:38:26;101452.3;;;25.2;34.0
72124;BME280;63818;37.134;-8.548;2023-07-31T04:43:12;101440.1;;;25.0;33.4
72124;BME280;63818;37.134;-8.548;2023-07-31T04:47:58;101455.4;;;25.0;34.3
72124;BME280;63818;37.134;-8.548;2023-07-31T04:52:43;101454.6;;;24.9;33.9
72124;BME280;63818;37.134;-8.548;2023-07-31T04:57:29;101451.0;;;24.9;34.5
72124;BME280;63818;37.134;-8.548;2023-07-31T05:02:18;101449.1;;;25.0;34.5
72124;BME280;63818;37.134;-8.548;2023-07-31T05:07:04;101440.8;;;24.9;34.8
72124;BME280;63818;37.134;-8.548;2023-07-31T05:11:50;101452.9;;;24.8;34.5
72124;BME280;63818;37.134;-8.548;2023-07-31T05:16:36;101454.6;;;24.9;35.1
72124;BME280;63818;37.134;-8.548;2023-07-31T05:21:22;101452.1;;;24.7;35.0
72124;BME280;63818;37.134;-8.548;2023-07-31T05:26:10;101458.8;;;24.9;34.4
72124;BME280;63818;37.134;-8.548;2023-07-31T05:31:00;101444.2;;;24.6;33.7
72124;BME280;63818;37.134;-8.548;2023-07-31T05:35:46;101452.9;;;24.7;33.0
72124;BME280;63818;37.134;-8.548;2023-07-31T05:40:33;101453.3;;;24.7;34.5
72124;BME280;63818;37.134;-8.548;2023-07-31T05:45:20;101452.5;;;24.8;32.8
72124;BME280;63818;37.134;-8.548;2023-07-31T05:50:06;101455.6;;;24.7;32.3
72124;BME280;63818;37.134;-8.548;2023-07-31T05:54:51;101467.1;;;24.2;33.0
72124;BME280;63818;37.134;-8.548;2023-07-31T05:59:37;101463.7;;;24.4;33.6
72124;BME280;63818;37.134;-8.548;2023-07-31T06:04:24;101477.0;;;24.3;35.1
72124;BME280;63818;37.134;-8.548;2023-07-31T06:09:10;101484.0;;;24.3;35.8
72124;BME280;63818;37.134;-8.548;2023-07-31T06:13:56;101476.2;;;24.3;36.0
72124;BME280;63818;37.134;-8.548;2023-07-31T06:18:42;101484.1;;;24.4;36.5
72124;BME280;63818;37.134;-8.548;2023-07-31T06:23:27;101484.2;;;24.5;36.2
72124;BME280;63818;37.134;-8.548;2023-07-31T06:28:13;101492.0;;;24.4;36.7
72124;BME280;63818;37.134;-8.548;2023-07-31T06:32:59;101496.5;;;24.2;36.7
72124;BME280;63818;37.134;-8.548;2023-07-31T06:37:45;101495.2;;;24.1;37.1
72124;BME280;63818;37.134;-8.548;2023-07-31T06:42:31;101501.2;;;24.2;36.9
72124;BME280;63818;37.134;-8.548;2023-07-31T06:47:17;101502.1;;;24.4;37.1
72124;BME280;63818;37.134;-8.548;2023-07-31T06:52:03;101503.3;;;24.3;36.5
72124;BME280;63818;37.134;-8.548;2023-07-31T06:56:49;101513.2;;;24.5;36.7
72124;BME280;63818;37.134;-8.548;2023-07-31T07:01:35;101513.3;;;24.6;36.7
72124;BME280;63818;37.134;-8.548;2023-07-31T07:06:22;101527.9;;;24.7;36.1
72124;BME280;63818;37.134;-8.548;2023-07-31T07:11:08;101525.1;;;24.7;36.6
72124;BME280;63818;37.134;-8.548;2023-07-31T07:15:54;101528.7;;;24.8;36.5
72124;BME280;63818;37.134;-8.548;2023-07-31T07:20:40;101529.9;;;24.8;36.2
72124;BME280;63818;37.134;-8.548;2023-07-31T07:25:26;101528.4;;;24.9;36.5
72124;BME280;63818;37.134;-8.548;2023-07-31T07:30:12;101539.8;;;25.0;36.2
72124;BME280;63818;37.134;-8.548;2023-07-31T07:34:59;101542.6;;;25.0;36.2
72124;BME280;63818;37.134;-8.548;2023-07-31T07:39:46;101550.2;;;25.2;35.9
72124;BME280;63818;37.134;-8.548;2023-07-31T07:44:32;101543.9;;;25.2;35.9
72124;BME280;63818;37.134;-8.548;2023-07-31T07:49:18;101546.7;;;25.3;35.5
72124;BME280;63818;37.134;-8.548;2023-07-31T07:54:05;101548.7;;;25.4;35.8
72124;BME280;63818;37.134;-8.548;2023-07-31T07:58:51;101552.6;;;25.4;35.9
72124;BME280;63818;37.134;-8.548;2023-07-31T08:03:39;101540.4;;;25.5;36.4
72124;BME280;63818;37.134;-8.548;2023-07-31T08:08:25;101542.9;;;25.6;35.8
72124;BME280;63818;37.134;-8.548;2023-07-31T08:13:11;101542.4;;;25.4;35.6
72124;BME280;63818;37.134;-8.548;2023-07-31T08:17:59;101543.9;;;25.3;35.6
72124;BME280;63818;37.134;-8.548;2023-07-31T08:22:45;101553.8;;;25.5;36.2
72124;BME280;63818;37.134;-8.548;2023-07-31T08:27:31;101552.3;;;25.6;35.6
72124;BME280;63818;37.134;-8.548;2023-07-31T08:32:20;101549.9;;;25.5;35.8
72124;BME280;63818;37.134;-8.548;2023-07-31T08:37:06;101559.4;;;25.6;35.6
72124;BME280;63818;37.134;-8.548;2023-07-31T08:42:01;101548.4;;;25.7;36.3
72124;BME280;63818;37.134;-8.548;2023-07-31T08:46:48;101561.4;;;25.7;37.2
72124;BME280;63818;37.134;-8.548;2023-07-31T08:51:36;101566.9;;;25.9;36.7
72124;BME280;63818;37.134;-8.548;2023-07-31T08:56:24;101564.5;;;25.9;36.7
72124;BME280;63818;37.134;-8.548;2023-07-31T09:01:11;101557.9;;;26.0;35.7
72124;BME280;63818;37.134;-8.548;2023-07-31T09:05:58;101568.1;;;26.0;35.7
72124;BME280;63818;37.134;-8.548;2023-07-31T09:10:45;101568.9;;;26.1;35.7
72124;BME280;63818;37.134;-8.548;2023-07-31T09:15:31;101561.0;;;26.1;35.7
72124;BME280;63818;37.134;-8.548;2023-07-31T09:20:19;101557.1;;;26.2;35.3
72124;BME280;63818;37.134;-8.548;2023-07-31T09:25:14;101564.2;;;26.3;34.4
72124;BME280;63818;37.134;-8.548;2023-07-31T09:30:00;101560.7;;;26.3;34.7
72124;BME280;63818;37.134;-8.548;2023-07-31T09:34:46;101570.5;;;26.4;34.8
72124;BME280;63818;37.134;-8.548;2023-07-31T09:39:47;101571.7;;;26.5;35.0
72124;BME280;63818;37.134;-8.548;2023-07-31T09:44:41;101562.6;;;26.4;35.1
72124;BME280;63818;37.134;-8.548;2023-07-31T09:49:28;101555.9;;;26.6;35.2
72124;BME280;63818;37.134;-8.548;2023-07-31T09:54:16;101562.6;;;26.6;34.9
72124;BME280;63818;37.134;-8.548;2023-07-31T09:59:03;101574.0;;;26.7;35.6
72124;BME280;63818;37.134;-8.548;2023-07-31T10:03:52;101554.7;;;26.7;35.4
72124;BME280;63818;37.134;-8.548;2023-07-31T10:08:38;101554.7;;;26.7;36.1
72124;BME280;63818;37.134;-8.548;2023-07-31T10:13:27;101555.5;;;26.8;36.1
72124;BME280;63818;37.134;-8.548;2023-07-31T10:18:13;101544.8;;;26.9;36.8
72124;BME280;63818;37.134;-8.548;2023-07-31T10:23:01;101581.1;;;27.0;36.3
72124;BME280;63818;37.134;-8.548;2023-07-31T10:27:47;101561.4;;;26.9;36.2
72124;BME280;63818;37.134;-8.548;2023-07-31T10:32:35;101554.3;;;26.9;35.7
72124;BME280;63818;37.134;-8.548;2023-07-31T10:37:22;101562.2;;;27.0;36.5
72124;BME280;63818;37.134;-8.548;2023-07-31T10:42:13;101559.0;;;27.0;36.5
72124;BME280;63818;37.134;-8.548;2023-07-31T10:47:00;101553.1;;;27.0;36.7
72124;BME280;63818;37.134;-8.548;2023-07-31T10:51:47;101537.2;;;27.2;36.6
72124;BME280;63818;37.134;-8.548;2023-07-31T10:56:37;101537.2;;;27.2;36.3
72124;BME280;63818;37.134;-8.548;2023-07-31T11:01:25;101539.6;;;27.3;36.2
72124;BME280;63818;37.134;-8.548;2023-07-31T11:06:16;101531.7;;;27.3;37.3
72124;BME280;63818;37.134;-8.548;2023-07-31T11:11:10;101534.4;;;27.4;37.9
72124;BME280;63818;37.134;-8.548;2023-07-31T11:15:57;101558.9;;;27.4;40.5
72124;BME280;63818;37.134;-8.548;2023-07-31T11:20:44;101536.0;;;27.4;40.2
72124;BME280;63818;37.134;-8.548;2023-07-31T11:25:31;101541.1;;;27.4;39.5
72124;BME280;63818;37.134;-8.548;2023-07-31T11:30:21;101534.8;;;27.4;39.2
72124;BME280;63818;37.134;-8.548;2023-07-31T11:35:07;101529.2;;;27.4;40.2
72124;BME280;63818;37.134;-8.548;2023-07-31T11:40:01;101535.5;;;27.5;40.6
72124;BME280;63818;37.134;-8.548;2023-07-31T11:44:47;101536.8;;;27.4;39.5
72124;BME280;63818;37.134;-8.548;2023-07-31T11:49:36;101518.2;;;27.4;39.2
72124;BME280;63818;37.134;-8.548;2023-07-31T11:54:22;101526.5;;;27.5;39.1
72124;BME280;63818;37.134;-8.548;2023-07-31T11:59:09;101508.3;;;27.5;39.8
72124;BME280;63818;37.134;-8.548;2023-07-31T12:03:56;101522.0;;;27.7;38.7
72124;BME280;63818;37.134;-8.548;2023-07-31T12:08:44;101522.9;;;27.6;38.6
72124;BME280;63818;37.134;-8.548;2023-07-31T12:13:31;101528.8;;;27.6;39.2
72124;BME280;63818;37.134;-8.548;2023-07-31T12:18:19;101517.7;;;27.6;39.7
72124;BME280;63818;37.134;-8.548;2023-07-31T12:23:06;101504.7;;;27.7;39.7
72124;BME280;63818;37.134;-8.548;2023-07-31T12:27:52;101525.6;;;27.6;39.4
72124;BME280;63818;37.134;-8.548;2023-07-31T12:32:40;101504.7;;;27.6;40.0
72124;BME280;63818;37.134;-8.548;2023-07-31T12:37:26;101505.5;;;27.7;39.9
72124;BME280;63818;37.134;-8.548;2023-07-31T12:42:12;101503.5;;;27.8;39.8
72124;BME280;63818;37.134;-8.548;2023-07-31T12:46:58;101497.1;;;27.7;39.4
72124;BME280;63818;37.134;-8.548;2023-07-31T12:51:45;101490.8;;;27.8;40.3
72124;BME280;63818;37.134;-8.548;2023-07-31T12:56:30;101496.9;;;28.0;40.2
72124;BME280;63818;37.134;-8.548;2023-07-31T13:01:16;101504.9;;;27.9;40.6
72124;BME280;63818;37.134;-8.548;2023-07-31T13:06:02;101492.2;;;28.0;40.2
72124;BME280;63818;37.134;-8.548;2023-07-31T13:10:49;101502.0;;;28.1;40.8
72124;BME280;63818;37.134;-8.548;2023-07-31T13:15:35;101503.2;;;28.0;40.6
72124;BME280;63818;37.134;-8.548;2023-07-31T13:20:21;101494.2;;;28.0;40.9
72124;BME280;63818;37.134;-8.548;2023-07-31T13:25:07;101498.5;;;28.0;40.4
72124;BME280;63818;37.134;-8.548;2023-07-31T13:29:53;101489.3;;;28.2;40.6
72124;BME280;63818;37.134;-8.548;2023-07-31T13:34:40;101494.5;;;28.0;41.1
72124;BME280;63818;37.134;-8.548;2023-07-31T13:39:26;101503.5;;;28.2;41.1
72124;BME280;63818;37.134;-8.548;2023-07-31T13:44:14;101475.5;;;28.1;41.8
72124;BME280;63818;37.134;-8.548;2023-07-31T13:49:01;101449.8;;;28.2;40.8
72124;BME280;63818;37.134;-8.548;2023-07-31T13:53:47;101459.1;;;28.4;41.2
72124;BME280;63818;37.134;-8.548;2023-07-31T13:58:34;101451.2;;;28.4;40.5
72124;BME280;63818;37.134;-8.548;2023-07-31T14:03:22;101479.1;;;28.5;40.0
72124;BME280;63818;37.134;-8.548;2023-07-31T14:08:09;101467.0;;;28.4;41.1
72124;BME280;63818;37.134;-8.548;2023-07-31T14:12:55;101471.3;;;28.4;41.0
72124;BME280;63818;37.134;-8.548;2023-07-31T14:17:46;101475.3;;;28.4;41.6
72124;BME280;63818;37.134;-8.548;2023-07-31T14:22:32;101477.2;;;28.4;41.4
72124;BME280;63818;37.134;-8.548;2023-07-31T14:27:19;101454.3;;;28.5;41.4
72124;BME280;63818;37.134;-8.548;2023-07-31T14:32:06;101452.4;;;28.7;41.1
72124;BME280;63818;37.134;-8.548;2023-07-31T14:36:52;101456.5;;;28.6;41.0
72124;BME280;63818;37.134;-8.548;2023-07-31T14:41:38;101441.6;;;28.8;40.9
72124;BME280;63818;37.134;-8.548;2023-07-31T14:46:24;101425.7;;;28.6;40.8
72124;BME280;63818;37.134;-8.548;2023-07-31T14:51:10;101438.9;;;28.8;40.8
72124;BME280;63818;37.134;-8.548;2023-07-31T14:55:57;101438.0;;;28.8;40.9
72124;BME280;63818;37.134;-8.548;2023-07-31T15:00:43;101434.4;;;28.9;40.4
72124;BME280;63818;37.134;-8.548;2023-07-31T15:05:29;101440.2;;;29.0;40.7
72124;BME280;63818;37.134;-8.548;2023-07-31T15:10:17;101442.4;;;28.9;40.8
72124;BME280;63818;37.134;-8.548;2023-07-31T15:15:06;101433.8;;;29.1;40.4
72124;BME280;63818;37.134;-8.548;2023-07-31T15:19:53;101444.1;;;28.7;41.1
72124;BME280;63818;37.134;-8.548;2023-07-31T15:24:39;101443.9;;;28.9;40.7
72124;BME280;63818;37.134;-8.548;2023-07-31T15:29:26;101446.0;;;29.1;40.7
72124;BME280;63818;37.134;-8.548;2023-07-31T15:34:14;101416.8;;;29.3;40.6
72124;BME280;63818;37.134;-8.548;2023-07-31T15:39:01;101417.9;;;29.4;39.9
72124;BME280;63818;37.134;-8.548;2023-07-31T15:43:46;101410.9;;;29.3;40.4
72124;BME280;63818;37.134;-8.548;2023-07-31T15:48:33;101408.6;;;29.3;39.8
72124;BME280;63818;37.134;-8.548;2023-07-31T15:53:19;101424.5;;;29.2;40.4
72124;BME280;63818;37.134;-8.548;2023-07-31T15:58:04;101414.3;;;29.1;40.9
72124;BME280;63818;37.134;-8.548;2023-07-31T16:02:51;101435.7;;;29.7;40.1
72124;BME280;63818;37.134;-8.548;2023-07-31T16:07:37;101420.4;;;29.5;40.4
72124;BME280;63818;37.134;-8.548;2023-07-31T16:12:23;101400.8;;;29.5;40.6
72124;BME280;63818;37.134;-8.548;2023-07-31T16:17:09;101409.8;;;29.7;39.5
72124;BME280;63818;37.134;-8.548;2023-07-31T16:21:57;101391.6;;;29.5;39.8
72124;BME280;63818;37.134;-8.548;2023-07-31T16:26:43;101388.8;;;30.0;39.0
72124;BME280;63818;37.134;-8.548;2023-07-31T16:31:29;101387.4;;;30.3;38.5
72124;BME280;63818;37.134;-8.548;2023-07-31T16:36:14;101393.2;;;31.6;35.9
72124;BME280;63818;37.134;-8.548;2023-07-31T16:41:01;101376.3;;;33.0;33.6
72124;BME280;63818;37.134;-8.548;2023-07-31T16:45:47;101371.0;;;33.6;32.4
72124;BME280;63818;37.134;-8.548;2023-07-31T16:50:32;101375.0;;;31.4;35.8
72124;BME280;63818;37.134;-8.548;2023-07-31T16:55:19;101385.9;;;30.9;36.7
72124;BME280;63818;37.134;-8.548;2023-07-31T17:00:06;101378.9;;;31.1;36.5
72124;BME280;63818;37.134;-8.548;2023-07-31T17:04:52;101371.2;;;30.5;37.2
72124;BME280;63818;37.134;-8.548;2023-07-31T17:09:38;101395.9;;;30.4;37.4
72124;BME280;63818;37.134;-8.548;2023-07-31T17:14:24;101370.3;;;30.4;37.6
72124;BME280;63818;37.134;-8.548;2023-07-31T17:19:10;101396.9;;;30.1;37.7
72124;BME280;63818;37.134;-8.548;2023-07-31T17:23:57;101388.3;;;30.1;37.7
72124;BME280;63818;37.134;-8.548;2023-07-31T17:28:45;101385.4;;;29.9;37.8
72124;BME280;63818;37.134;-8.548;2023-07-31T17:33:31;101384.1;;;30.2;37.2
72124;BME280;63818;37.134;-8.548;2023-07-31T17:38:17;101406.6;;;30.0;37.1
72124;BME280;63818;37.134;-8.548;2023-07-31T17:43:03;101389.8;;;29.4;38.6
72124;BME280;63818;37.134;-8.548;2023-07-31T17:47:50;101387.4;;;29.4;39.2
72124;BME280;63818;37.134;-8.548;2023-07-31T17:52:36;101389.1;;;29.4;39.2
72124;BME280;63818;37.134;-8.548;2023-07-31T17:57:22;101389.5;;;29.1;39.5
72124;BME280;63818;37.134;-8.548;2023-07-31T18:02:08;101390.5;;;29.2;39.1
72124;BME280;63818;37.134;-8.548;2023-07-31T18:06:54;101373.8;;;29.2;39.2
72124;BME280;63818;37.134;-8.548;2023-07-31T18:11:41;101375.0;;;29.2;39.1
72124;BME280;63818;37.134;-8.548;2023-07-31T18:16:27;101371.3;;;29.3;39.1
72124;BME280;63818;37.134;-8.548;2023-07-31T18:21:14;101391.6;;;29.3;39.1
72124;BME280;63818;37.134;-8.548;2023-07-31T18:26:00;101373.7;;;29.3;39.2
72124;BME280;63818;37.134;-8.548;2023-07-31T18:30:47;101396.1;;;29.2;39.3
72124;BME280;63818;37.134;-8.548;2023-07-31T18:35:37;101387.7;;;29.2;39.5
72124;BME280;63818;37.134;-8.548;2023-07-31T18:40:22;101393.7;;;28.9;39.9
72124;BME280;63818;37.134;-8.548;2023-07-31T18:45:10;101383.8;;;29.2;39.8
72124;BME280;63818;37.134;-8.548;2023-07-31T18:50:03;101380.0;;;29.0;39.8
72124;BME280;63818;37.134;-8.548;2023-07-31T18:54:48;101395.4;;;28.8;40.3
72124;BME280;63818;37.134;-8.548;2023-07-31T18:59:35;101391.9;;;28.4;41.1
72124;BME280;63818;37.134;-8.548;2023-07-31T19:04:21;101384.8;;;28.5;41.1
72124;BME280;63818;37.134;-8.548;2023-07-31T19:09:10;101393.9;;;28.4;41.5
72124;BME280;63818;37.134;-8.548;2023-07-31T19:13:56;101405.8;;;28.4;41.1
72124;BME280;63818;37.134;-8.548;2023-07-31T19:18:43;101411.6;;;28.1;41.1
72124;BME280;63818;37.134;-8.548;2023-07-31T19:23:29;101419.2;;;27.9;41.4
72124;BME280;63818;37.134;-8.548;2023-07-31T19:28:15;101414.2;;;27.9;41.4
72124;BME280;63818;37.134;-8.548;2023-07-31T19:33:01;101434.0;;;27.7;42.1
72124;BME280;63818;37.134;-8.548;2023-07-31T19:37:46;101429.1;;;27.4;43.0
72124;BME280;63818;37.134;-8.548;2023-07-31T19:42:33;101427.6;;;27.2;43.1
72124;BME280;63818;37.134;-8.548;2023-07-31T19:47:19;101430.5;;;27.1;43.3
72124;BME280;63818;37.134;-8.548;2023-07-31T19:52:05;101442.0;;;26.8;43.9
72124;BME280;63818;37.134;-8.548;2023-07-31T19:56:53;101436.2;;;26.7;44.5
72124;BME280;63818;37.134;-8.548;2023-07-31T20:01:41;101446.0;;;26.6;44.6
72124;BME280;63818;37.134;-8.548;2023-07-31T20:06:28;101448.5;;;26.5;44.8
72124;BME280;63818;37.134;-8.548;2023-07-31T20:11:14;101458.7;;;26.5;44.7
72124;BME280;63818;37.134;-8.548;2023-07-31T20:16:00;101456.2;;;26.9;43.9
72124;BME280;63818;37.134;-8.548;2023-07-31T20:20:46;101457.9;;;26.5;44.4
72124;BME280;63818;37.134;-8.548;2023-07-31T20:25:33;101467.3;;;26.5;45.0
72124;BME280;63818;37.134;-8.548;2023-07-31T20:30:19;101482.3;;;26.2;45.7
72124;BME280;63818;37.134;-8.548;2023-07-31T20:35:05;101482.3;;;26.1;45.5
72124;BME280;63818;37.134;-8.548;2023-07-31T20:39:51;101480.8;;;26.3;45.0
72124;BME280;63818;37.134;-8.548;2023-07-31T20:44:37;101484.7;;;26.3;44.8
72124;BME280;63818;37.134;-8.548;2023-07-31T20:49:23;101489.8;;;26.2;45.2
72124;BME280;63818;37.134;-8.548;2023-07-31T20:54:09;101489.4;;;26.1;45.9
72124;BME280;63818;37.134;-8.548;2023-07-31T20:58:55;101496.1;;;26.3;45.2
72124;BME280;63818;37.134;-8.548;2023-07-31T21:03:41;101493.0;;;26.3;45.5
72124;BME280;63818;37.134;-8.548;2023-07-31T21:08:30;101507.5;;;26.0;45.5
72124;BME280;63818;37.134;-8.548;2023-07-31T21:13:16;101504.0;;;26.1;45.6
72124;BME280;63818;37.134;-8.548;2023-07-31T21:18:02;101505.1;;;25.8;46.6
72124;BME280;63818;37.134;-8.548;2023-07-31T21:22:48;101507.1;;;25.9;46.8
72124;BME280;63818;37.134;-8.548;2023-07-31T21:27:34;101515.8;;;25.8;46.9
72124;BME280;63818;37.134;-8.548;2023-07-31T21:32:20;101526.0;;;25.7;47.7
72124;BME280;63818;37.134;-8.548;2023-07-31T21:37:09;101523.2;;;25.7;48.1
72124;BME280;63818;37.134;-8.548;2023-07-31T21:41:56;101513.8;;;25.7;47.8
72124;BME280;63818;37.134;-8.548;2023-07-31T21:46:44;101520.5;;;25.7;48.4
72124;BME280;63818;37.134;-8.548;2023-07-31T21:51:30;101528.3;;;25.7;48.3
72124;BME280;63818;37.134;-8.548;2023-07-31T21:56:15;101533.0;;;25.7;49.0
72124;BME280;63818;37.134;-8.548;2023-07-31T22:01:01;101520.0;;;25.5;49.5
72124;BME280;63818;37.134;-8.548;2023-07-31T22:05:47;101518.8;;;25.4;50.0
72124;BME280;63818;37.134;-8.548;2023-07-31T22:10:34;101526.7;;;25.5;50.2
72124;BME280;63818;37.134;-8.548;2023-07-31T22:15:19;101529.3;;;25.2;51.1
72124;BME280;63818;37.134;-8.548;2023-07-31T22:20:07;101546.2;;;25.2;51.4
72124;BME280;63818;37.134;-8.548;2023-07-31T22:24:53;101536.5;;;25.6;50.7
72124;BME280;63818;37.134;-8.548;2023-07-31T22:29:39;101539.3;;;25.5;50.8
72124;BME280;63818;37.134;-8.548;2023-07-31T22:34:26;101530.9;;;25.3;51.6
72124;BME280;63818;37.134;-8.548;2023-07-31T22:39:12;101537.2;;;25.1;52.1
72124;BME280;63818;37.134;-8.548;2023-07-31T22:43:58;101538.7;;;25.1;51.9
72124;BME280;63818;37.134;-8.548;2023-07-31T22:48:44;101538.8;;;25.3;52.1
72124;BME280;63818;37.134;-8.548;2023-07-31T22:53:30;101529.8;;;25.4;51.9
72124;BME280;63818;37.134;-8.548;2023-07-31T22:58:16;101531.0;;;25.4;51.8
72124;BME280;63818;37.134;-8.548;2023-07-31T23:03:02;101536.4;;;25.2;52.1
72124;BME280;63818;37.134;-8.548;2023-07-31T23:07:48;101531.7;;;25.2;52.8
72124;BME280;63818;37.134;-8.548;2023-07-31T23:12:33;101526.2;;;25.1;53.0
72124;BME280;63818;37.134;-8.548;2023-07-31T23:17:22;101521.9;;;25.2;52.6
72124;BME280;63818;37.134;-8.548;2023-07-31T23:22:10;101530.9;;;25.1;53.0
72124;BME280;63818;37.134;-8.548;2023-07-31T23:26:55;101529.2;;;25.0;53.5
72124;BME280;63818;37.134;-8.548;2023-07-31T23:31:43;101526.9;;;25.1;53.2
72124;BME280;63818;37.134;-8.548;2023-07-31T23:36:29;101518.5;;;24.8;54.1
72124;BME280;63818;37.134;-8.548;2023-07-31T23:41:16;101531.8;;;24.7;54.6
72124;BME280;63818;37.134;-8.548;2023-07-31T23:46:02;101527.1;;;24.7;54.7
72124;BME280;63818;37.134;-8.548;2023-07-31T23:50:49;101515.0;;;24.9;54.5
72124;BME280;63818;37.134;-8.548;2023-07-31T23:55:39;101529.5;;;24.8;54.9
